createdAt,value
2018-07-07T00:00:24.789Z,101579.80
2018-07-07T00:02:52.885Z,101576.31
2018-07-07T00:05:20.971Z,101581.79
2018-07-07T00:07:49.068Z,101577.33
2018-07-07T00:10:17.345Z,101579.88
2018-07-07T00:12:45.753Z,101579.88
2018-07-07T00:15:16.060Z,101576.40
2018-07-07T00:17:44.660Z,101581.52
2018-07-07T00:20:12.846Z,101580.01
2018-07-07T00:22:40.955Z,101580.48
2018-07-07T00:25:13.059Z,101575.22
2018-07-07T00:27:41.170Z,101582.02
2018-07-07T00:30:09.265Z,101586.42
2018-07-07T00:32:37.356Z,101585.98
2018-07-07T00:35:05.447Z,101580.34
2018-07-07T00:37:33.509Z,101584.20
2018-07-07T00:40:01.612Z,101589.78
2018-07-07T00:42:29.825Z,101586.42
2018-07-07T00:44:57.960Z,101590.94
2018-07-07T00:47:26.054Z,101587.44
2018-07-07T00:49:54.120Z,101582.50
2018-07-07T00:52:22.234Z,101588.77
2018-07-07T00:54:50.344Z,101590.64
2018-07-07T00:57:18.447Z,101594.11
2018-07-07T00:59:46.556Z,101595.70
2018-07-07T01:02:18.663Z,101598.41
2018-07-07T01:04:47.442Z,101604.16
2018-07-07T01:07:15.535Z,101601.59
2018-07-07T01:09:43.655Z,101604.47
2018-07-07T01:12:11.739Z,101598.98
2018-07-07T01:14:39.885Z,101602.20
2018-07-07T01:17:07.997Z,101604.05
2018-07-07T01:19:36.191Z,101605.67
2018-07-07T01:22:06.067Z,101606.39
2018-07-07T01:24:34.161Z,101608.50
2018-07-07T01:27:02.233Z,101609.04
2018-07-07T01:29:30.336Z,101606.80
2018-07-07T01:31:58.438Z,101602.00
2018-07-07T01:34:26.561Z,101602.20
2018-07-07T01:36:54.660Z,101599.98
2018-07-07T01:39:22.807Z,101599.52
2018-07-07T01:41:50.939Z,101591.84
2018-07-07T01:44:19.071Z,101597.02
2018-07-07T01:46:47.161Z,101594.96
2018-07-07T01:49:15.260Z,101586.23
2018-07-07T01:51:43.342Z,101590.69
2018-07-07T01:54:11.439Z,101589.84
2018-07-07T01:56:39.504Z,101594.16
2018-07-07T01:59:07.680Z,101591.16
2018-07-07T02:01:36.629Z,101587.05
2018-07-07T02:04:04.724Z,101594.47
2018-07-07T02:06:33.089Z,101586.28
2018-07-07T02:09:01.296Z,101582.41
2018-07-07T02:11:29.411Z,101591.16
2018-07-07T02:13:57.524Z,101594.80
2018-07-07T02:16:25.618Z,101595.03
2018-07-07T02:18:53.802Z,101592.16
2018-07-07T02:21:21.880Z,101592.47
2018-07-07T02:23:50.012Z,101598.88
2018-07-07T02:26:18.147Z,101596.63
2018-07-07T02:28:46.264Z,101598.91
2018-07-07T02:31:14.396Z,101595.34
2018-07-07T02:33:42.476Z,101598.72
2018-07-07T02:36:10.596Z,101598.58
2018-07-07T02:38:38.697Z,101595.09
2018-07-07T02:41:06.800Z,101597.03
2018-07-07T02:43:34.887Z,101601.36
2018-07-07T02:46:02.965Z,101605.16
2018-07-07T02:48:31.085Z,101597.97
2018-07-07T02:50:59.147Z,101600.37
2018-07-07T02:53:27.292Z,101603.61
2018-07-07T02:55:55.403Z,101605.30
2018-07-07T02:58:23.490Z,101601.91
2018-07-07T03:00:51.606Z,101604.84
2018-07-07T03:03:19.797Z,101606.54
2018-07-07T03:05:47.847Z,101605.53
2018-07-07T03:08:15.938Z,101603.22
2018-07-07T03:10:44.022Z,101607.00
2018-07-07T03:13:12.136Z,101610.42
2018-07-07T03:15:40.225Z,101609.70
2018-07-07T03:18:08.304Z,101607.61
2018-07-07T03:20:36.421Z,101616.89
2018-07-07T03:23:04.536Z,101616.27
2018-07-07T03:25:32.630Z,101627.36
2018-07-07T03:28:00.758Z,101626.41
2018-07-07T03:30:28.857Z,101626.48
2018-07-07T03:32:56.998Z,101628.59
2018-07-07T03:35:25.081Z,101624.19
2018-07-07T03:37:53.198Z,101622.88
2018-07-07T03:40:21.290Z,101631.00
2018-07-07T03:42:49.388Z,101628.02
2018-07-07T03:45:17.491Z,101633.09
2018-07-07T03:47:45.595Z,101630.84
2018-07-07T03:50:13.729Z,101633.55
2018-07-07T03:52:41.842Z,101633.98
2018-07-07T03:55:09.967Z,101638.89
2018-07-07T03:57:38.096Z,101640.98
2018-07-07T04:00:06.215Z,101635.33
2018-07-07T04:02:34.308Z,101635.06
2018-07-07T04:05:02.382Z,101632.59
2018-07-07T04:07:30.454Z,101634.61
2018-07-07T04:09:58.546Z,101633.98
2018-07-07T04:12:26.693Z,101635.14
2018-07-07T04:14:54.816Z,101638.23
2018-07-07T04:17:22.870Z,101639.08
2018-07-07T04:19:50.991Z,101642.67
2018-07-07T04:22:19.140Z,101644.05
2018-07-07T04:24:47.222Z,101640.64
2018-07-07T04:27:15.350Z,101647.08
2018-07-07T04:29:43.460Z,101645.30
2018-07-07T04:32:11.590Z,101646.55
2018-07-07T04:34:39.715Z,101638.64
2018-07-07T04:37:07.780Z,101642.34
2018-07-07T04:39:35.876Z,101640.72
2018-07-07T04:42:04.014Z,101632.34
2018-07-07T04:44:32.150Z,101637.68
2018-07-07T04:47:00.237Z,101634.95
2018-07-07T04:49:28.410Z,101644.13
2018-07-07T04:51:56.529Z,101632.98
2018-07-07T04:54:24.629Z,101632.22
2018-07-07T04:56:52.732Z,101628.38
2018-07-07T04:59:20.829Z,101633.72
2018-07-07T05:01:48.925Z,101632.78
2018-07-07T05:04:17.037Z,101634.19
2018-07-07T05:06:45.139Z,101643.89
2018-07-07T05:09:13.341Z,101640.13
2018-07-07T05:11:41.455Z,101639.73
2018-07-07T05:14:09.588Z,101646.05
2018-07-07T05:16:37.669Z,101632.20
2018-07-07T05:19:05.801Z,101639.30
2018-07-07T05:21:33.883Z,101643.16
2018-07-07T05:24:01.965Z,101648.89
2018-07-07T05:26:30.113Z,101636.70
2018-07-07T05:28:58.202Z,101639.52
2018-07-07T05:31:26.304Z,101631.80
2018-07-07T05:33:54.445Z,101642.45
2018-07-07T05:36:22.562Z,101648.73
2018-07-07T05:38:50.704Z,101642.93
2018-07-07T05:41:18.850Z,101643.79
2018-07-07T05:43:46.965Z,101637.64
2018-07-07T05:46:15.076Z,101646.11
2018-07-07T05:48:43.155Z,101643.20
2018-07-07T05:51:11.266Z,101649.86
2018-07-07T05:53:39.451Z,101641.45
2018-07-07T05:56:07.551Z,101638.70
2018-07-07T05:58:35.650Z,101638.97
2018-07-07T06:01:03.730Z,101642.91
2018-07-07T06:03:31.831Z,101638.44
2018-07-07T06:05:59.902Z,101642.87
2018-07-07T06:08:28.142Z,101647.31
2018-07-07T06:10:56.284Z,101643.83
2018-07-07T06:13:24.376Z,101646.98
2018-07-07T06:15:52.487Z,101643.89
2018-07-07T06:18:20.693Z,101649.72
2018-07-07T06:20:48.807Z,101650.82
2018-07-07T06:23:16.933Z,101656.67
2018-07-07T06:25:45.066Z,101664.54
2018-07-07T06:28:13.176Z,101661.92
2018-07-07T06:30:41.295Z,101660.30
2018-07-07T06:33:09.397Z,101656.22
2018-07-07T06:35:37.507Z,101653.84
2018-07-07T06:38:06.172Z,101661.29
2018-07-07T06:40:34.323Z,101652.56
2018-07-07T06:43:02.478Z,101658.16
2018-07-07T06:45:30.604Z,101659.66
2018-07-07T06:47:58.707Z,101654.50
2018-07-07T06:50:26.880Z,101657.09
2018-07-07T06:52:55.092Z,101656.02
2018-07-07T06:55:23.191Z,101657.88
2018-07-07T06:57:51.329Z,101658.19
2018-07-07T07:00:19.444Z,101660.99
2018-07-07T07:02:47.586Z,101659.58
2018-07-07T07:05:15.710Z,101663.63
2018-07-07T07:07:43.855Z,101664.28
2018-07-07T07:10:11.976Z,101655.66
2018-07-07T07:12:40.121Z,101655.57
2018-07-07T07:15:08.221Z,101660.92
2018-07-07T07:17:36.394Z,101666.77
2018-07-07T07:20:04.542Z,101675.78
2018-07-07T07:22:32.684Z,101671.73
2018-07-07T07:25:00.916Z,101666.25
2018-07-07T07:27:29.556Z,101673.11
2018-07-07T07:29:57.670Z,101686.46
2018-07-07T07:32:25.778Z,101686.14
2018-07-07T07:34:54.840Z,101683.25
2018-07-07T07:37:23.033Z,101687.23
2018-07-07T07:39:51.120Z,101684.54
2018-07-07T07:42:19.232Z,101687.30
2018-07-07T07:44:47.375Z,101685.00
2018-07-07T07:47:15.636Z,101683.88
2018-07-07T07:49:43.760Z,101687.30
2018-07-07T07:52:11.891Z,101685.82
2018-07-07T07:54:40.033Z,101677.66
2018-07-07T07:57:08.167Z,101678.30
2018-07-07T07:59:36.290Z,101686.13
2018-07-07T08:02:04.419Z,101688.21
2018-07-07T08:04:32.547Z,101680.77
2018-07-07T08:07:00.675Z,101666.65
2018-07-07T08:09:28.846Z,101667.94
2018-07-07T08:11:56.963Z,101668.98
2018-07-07T08:14:25.134Z,101668.71
2018-07-07T08:16:53.288Z,101668.53
2018-07-07T08:19:21.430Z,101665.07
2018-07-07T08:21:49.571Z,101665.53
2018-07-07T08:24:17.760Z,101661.36
2018-07-07T08:26:45.884Z,101668.41
2018-07-07T08:29:14.015Z,101664.13
2018-07-07T08:31:42.136Z,101670.02
2018-07-07T08:34:10.269Z,101669.41
2018-07-07T08:36:38.432Z,101666.43
2018-07-07T08:39:06.619Z,101662.06
2018-07-07T08:41:34.768Z,101670.89
2018-07-07T08:44:02.887Z,101665.38
2018-07-07T08:46:31.031Z,101668.55
2018-07-07T08:48:59.116Z,101662.45
2018-07-07T08:51:27.209Z,101663.70
2018-07-07T08:53:55.316Z,101673.65
2018-07-07T08:56:23.441Z,101666.81
2018-07-07T08:58:51.542Z,101662.36
2018-07-07T09:01:19.636Z,101663.69
2018-07-07T09:03:47.784Z,101674.03
2018-07-07T09:06:15.887Z,101671.55
2018-07-07T09:08:44.044Z,101654.47
2018-07-07T09:11:12.425Z,101671.86
2018-07-07T09:13:40.504Z,101678.09
2018-07-07T09:16:08.600Z,101665.58
2018-07-07T09:18:36.680Z,101674.09
2018-07-07T09:21:04.812Z,101663.54
2018-07-07T09:23:32.905Z,101663.69
2018-07-07T09:26:00.998Z,101663.66
2018-07-07T09:28:29.066Z,101666.45
2018-07-07T09:30:57.187Z,101649.44
2018-07-07T09:33:25.316Z,101656.58
2018-07-07T09:35:53.436Z,101663.06
2018-07-07T09:38:21.536Z,101657.72
2018-07-07T09:40:49.631Z,101657.16
2018-07-07T09:43:17.777Z,101656.52
2018-07-07T09:45:45.923Z,101657.50
2018-07-07T09:48:14.055Z,101654.70
2018-07-07T09:50:42.129Z,101664.37
2018-07-07T09:53:10.292Z,101662.41
2018-07-07T09:55:38.388Z,101653.06
2018-07-07T09:58:06.533Z,101636.33
2018-07-07T10:00:40.520Z,101653.02
2018-07-07T10:03:08.701Z,101659.33
2018-07-07T10:05:37.115Z,101657.24
2018-07-07T10:08:05.445Z,101661.92
2018-07-07T10:10:33.962Z,101671.20
2018-07-07T10:13:02.176Z,101669.17
2018-07-07T10:15:30.352Z,101666.06
2018-07-07T10:17:58.466Z,101663.20
2018-07-07T10:20:26.782Z,101666.56
2018-07-07T10:22:54.883Z,101669.26
2018-07-07T10:25:23.004Z,101661.20
2018-07-07T10:27:52.223Z,101657.84
2018-07-07T10:30:20.442Z,101663.78
2018-07-07T10:32:48.645Z,101664.97
2018-07-07T10:35:16.753Z,101655.38
2018-07-07T10:37:44.857Z,101657.28
2018-07-07T10:40:12.984Z,101658.41
2018-07-07T10:42:41.108Z,101658.30
2018-07-07T10:45:09.254Z,101648.22
2018-07-07T10:47:37.368Z,101654.02
2018-07-07T10:50:05.470Z,101645.23
2018-07-07T10:52:33.582Z,101649.48
2018-07-07T10:55:01.738Z,101652.36
2018-07-07T10:57:29.821Z,101662.42
2018-07-07T10:59:58.064Z,101661.24
2018-07-07T11:02:26.151Z,101668.66
2018-07-07T11:04:54.272Z,101661.92
2018-07-07T11:07:22.351Z,101664.63
2018-07-07T11:09:50.428Z,101669.05
2018-07-07T11:12:18.532Z,101666.59
2018-07-07T11:14:46.718Z,101677.51
2018-07-07T11:17:14.891Z,101676.41
2018-07-07T11:19:42.982Z,101663.80
2018-07-07T11:22:11.116Z,101668.23
2018-07-07T11:24:40.167Z,101664.63
2018-07-07T11:27:08.600Z,101671.64
2018-07-07T11:29:36.696Z,101677.51
2018-07-07T11:32:04.766Z,101668.48
2018-07-07T11:34:32.928Z,101668.94
2018-07-07T11:37:01.148Z,101662.48
2018-07-07T11:39:29.197Z,101660.09
2018-07-07T11:41:57.323Z,101654.98
2018-07-07T11:44:25.420Z,101671.69
2018-07-07T11:46:53.571Z,101673.38
2018-07-07T11:49:21.682Z,101673.09
2018-07-07T11:51:49.797Z,101662.48
2018-07-07T11:54:17.952Z,101663.25
2018-07-07T11:56:46.020Z,101668.83
2018-07-07T11:59:14.092Z,101663.43
2018-07-07T12:01:42.240Z,101666.69
2018-07-07T12:04:10.315Z,101678.59
2018-07-07T12:06:38.479Z,101669.70
2018-07-07T12:09:07.150Z,101663.84
2018-07-07T12:11:35.310Z,101666.91
2018-07-07T12:14:03.441Z,101669.67
2018-07-07T12:16:31.513Z,101665.52
2018-07-07T12:18:59.638Z,101666.73
2018-07-07T12:21:27.720Z,101668.47
2018-07-07T12:23:55.821Z,101671.92
2018-07-07T12:26:23.921Z,101666.22
2018-07-07T12:28:52.368Z,101669.50
2018-07-07T12:31:20.563Z,101667.34
2018-07-07T12:33:48.682Z,101660.74
2018-07-07T12:36:16.818Z,101668.39
2018-07-07T12:38:44.955Z,101662.78
2018-07-07T12:41:13.073Z,101669.64
2018-07-07T12:43:41.217Z,101671.33
2018-07-07T12:46:09.316Z,101663.46
2018-07-07T12:48:37.497Z,101660.94
2018-07-07T12:51:05.682Z,101663.87
2018-07-07T12:53:33.813Z,101664.02
2018-07-07T12:56:01.990Z,101657.48
2018-07-07T12:58:30.081Z,101667.30
2018-07-07T13:00:58.188Z,101665.72
2018-07-07T13:03:26.281Z,101667.47
2018-07-07T13:05:54.400Z,101669.22
2018-07-07T13:08:22.486Z,101665.71
2018-07-07T13:10:50.568Z,101668.83
2018-07-07T13:13:18.676Z,101659.81
2018-07-07T13:15:46.786Z,101665.52
2018-07-07T13:18:14.872Z,101669.40
2018-07-07T13:20:42.995Z,101666.66
2018-07-07T13:23:11.077Z,101656.85
2018-07-07T13:25:39.193Z,101664.13
2018-07-07T13:28:07.271Z,101661.36
2018-07-07T13:30:35.379Z,101668.06
2018-07-07T13:33:03.494Z,101671.22
2018-07-07T13:35:31.613Z,101662.09
2018-07-07T13:37:59.724Z,101672.53
2018-07-07T13:40:27.824Z,101674.23
2018-07-07T13:42:55.929Z,101670.66
2018-07-07T13:45:24.080Z,101673.53
2018-07-07T13:47:52.157Z,101676.06
2018-07-07T13:50:20.303Z,101671.64
2018-07-07T13:52:48.452Z,101668.28
2018-07-07T13:55:16.544Z,101660.95
2018-07-07T13:57:44.636Z,101669.17
2018-07-07T14:00:12.724Z,101679.02
2018-07-07T14:02:40.859Z,101676.86
2018-07-07T14:05:09.244Z,101681.20
2018-07-07T14:07:37.342Z,101676.24
2018-07-07T14:10:05.725Z,101676.28
2018-07-07T14:12:33.860Z,101672.59
2018-07-07T14:15:02.062Z,101679.52
2018-07-07T14:17:30.211Z,101672.27
2018-07-07T14:19:58.286Z,101675.26
2018-07-07T14:22:27.230Z,101684.91
2018-07-07T14:24:55.335Z,101683.41
2018-07-07T14:27:23.981Z,101673.17
2018-07-07T14:29:52.106Z,101669.67
2018-07-07T14:32:20.204Z,101672.62
2018-07-07T14:34:48.324Z,101672.23
2018-07-07T14:37:16.424Z,101667.48
2018-07-07T14:39:56.231Z,101666.29
2018-07-07T14:42:35.068Z,101661.42
2018-07-07T14:45:08.268Z,101665.78
2018-07-07T14:47:36.322Z,101662.27
2018-07-07T14:50:04.430Z,101674.45
2018-07-07T14:52:32.513Z,101680.63
2018-07-07T14:55:00.629Z,101667.91
2018-07-07T14:57:28.782Z,101667.93
2018-07-07T14:59:56.876Z,101672.05
2018-07-07T15:02:25.051Z,101677.64
2018-07-07T15:04:53.160Z,101679.59
2018-07-07T15:07:21.272Z,101682.35
2018-07-07T15:09:49.399Z,101686.73
2018-07-07T15:12:17.512Z,101683.08
2018-07-07T15:14:45.641Z,101690.73
2018-07-07T15:17:13.718Z,101698.56
2018-07-07T15:19:42.731Z,101697.53
2018-07-07T15:22:10.911Z,101695.86
2018-07-07T15:24:39.206Z,101695.84
2018-07-07T15:27:07.314Z,101684.80
2018-07-07T15:29:35.550Z,101689.14
2018-07-07T15:32:03.756Z,101694.11
2018-07-07T15:34:31.885Z,101689.05
2018-07-07T15:37:00.038Z,101684.52
2018-07-07T15:39:28.192Z,101692.09
2018-07-07T15:41:56.358Z,101696.28
2018-07-07T15:44:24.442Z,101687.35
2018-07-07T15:46:52.790Z,101693.39
2018-07-07T15:49:20.944Z,101682.83
2018-07-07T15:51:49.038Z,101687.62
2018-07-07T15:54:17.165Z,101682.30
2018-07-07T15:56:45.293Z,101687.14
2018-07-07T15:59:13.376Z,101689.16
2018-07-07T16:01:41.480Z,101681.86
2018-07-07T16:04:09.607Z,101685.67
2018-07-07T16:06:37.754Z,101686.73
2018-07-07T16:09:06.679Z,101690.55
2018-07-07T16:11:35.038Z,101684.00
2018-07-07T16:14:03.165Z,101688.83
2018-07-07T16:16:31.302Z,101683.03
2018-07-07T16:18:59.462Z,101678.19
2018-07-07T16:21:27.586Z,101683.86
2018-07-07T16:23:55.709Z,101678.31
2018-07-07T16:26:23.844Z,101680.61
2018-07-07T16:28:52.288Z,101678.00
2018-07-07T16:31:20.425Z,101685.98
2018-07-07T16:33:48.523Z,101671.01
2018-07-07T16:36:16.666Z,101666.66
2018-07-07T16:38:44.826Z,101676.44
2018-07-07T16:41:12.931Z,101672.70
2018-07-07T16:43:41.303Z,101677.66
2018-07-07T16:46:09.574Z,101673.67
2018-07-07T16:48:37.688Z,101675.97
2018-07-07T16:51:05.940Z,101678.43
2018-07-07T16:53:34.302Z,101676.86
2018-07-07T16:56:02.520Z,101668.30
2018-07-07T16:58:30.658Z,101664.66
2018-07-07T17:00:58.875Z,101671.80
2018-07-07T17:03:27.015Z,101668.41
2018-07-07T17:05:55.139Z,101670.02
2018-07-07T17:08:23.225Z,101666.16
2018-07-07T17:10:51.352Z,101675.09
2018-07-07T17:13:19.455Z,101669.89
2018-07-07T17:15:47.601Z,101668.44
2018-07-07T17:18:15.742Z,101675.92
2018-07-07T17:20:43.888Z,101669.77
2018-07-07T17:23:11.964Z,101669.77
2018-07-07T17:25:40.236Z,101673.98
2018-07-07T17:28:08.492Z,101670.25
2018-07-07T17:30:36.605Z,101673.50
2018-07-07T17:33:04.702Z,101669.41
2018-07-07T17:35:33.057Z,101667.94
2018-07-07T17:38:01.208Z,101663.91
2018-07-07T17:40:29.341Z,101662.96
2018-07-07T17:42:57.454Z,101662.69
2018-07-07T17:45:25.577Z,101667.13
2018-07-07T17:47:53.907Z,101667.84
2018-07-07T17:50:22.007Z,101668.20
2018-07-07T17:52:50.170Z,101673.65
2018-07-07T17:55:18.277Z,101677.63
2018-07-07T17:57:46.399Z,101680.03
2018-07-07T18:00:14.606Z,101688.66
2018-07-07T18:02:42.721Z,101682.52
2018-07-07T18:05:10.817Z,101685.90
2018-07-07T18:07:38.910Z,101685.76
2018-07-07T18:10:07.030Z,101685.33
2018-07-07T18:12:35.235Z,101690.38
2018-07-07T18:15:03.369Z,101688.31
2018-07-07T18:17:31.468Z,101688.16
2018-07-07T18:19:59.600Z,101681.87
2018-07-07T18:22:27.697Z,101688.82
2018-07-07T18:24:55.799Z,101682.08
2018-07-07T18:27:23.960Z,101686.09
2018-07-07T18:29:52.043Z,101677.30
2018-07-07T18:32:20.138Z,101686.16
2018-07-07T18:34:48.226Z,101688.91
2018-07-07T18:37:16.337Z,101686.41
2018-07-07T18:39:44.453Z,101686.09
2018-07-07T18:42:12.540Z,101678.05
2018-07-07T18:44:40.692Z,101679.69
2018-07-07T18:47:08.782Z,101684.72
2018-07-07T18:49:38.193Z,101685.57
2018-07-07T18:52:06.383Z,101688.94
2018-07-07T18:54:34.549Z,101686.77
2018-07-07T18:57:02.649Z,101693.57
2018-07-07T18:59:30.719Z,101692.27
2018-07-07T19:01:58.841Z,101692.72
2018-07-07T19:04:26.922Z,101697.79
2018-07-07T19:06:55.076Z,101701.22
2018-07-07T19:09:23.208Z,101702.65
2018-07-07T19:11:51.300Z,101701.56
2018-07-07T19:14:19.472Z,101707.84
2018-07-07T19:16:47.572Z,101707.81
2018-07-07T19:19:15.738Z,101715.37
2018-07-07T19:21:49.099Z,101713.61
2018-07-07T19:24:22.524Z,101714.47
2018-07-07T19:26:52.067Z,101714.56
2018-07-07T19:29:21.068Z,101714.74
2018-07-07T19:31:54.616Z,101722.88
2018-07-07T19:34:27.987Z,101724.97
2018-07-07T19:37:01.404Z,101719.92
2018-07-07T19:39:29.490Z,101723.71
2018-07-07T19:41:58.123Z,101724.09
2018-07-07T19:44:26.246Z,101714.66
2018-07-07T19:46:55.216Z,101720.56
2018-07-07T19:49:23.314Z,101728.69
2018-07-07T19:51:51.469Z,101731.81
2018-07-07T19:54:19.600Z,101723.70
2018-07-07T19:56:47.709Z,101729.45
2018-07-07T19:59:15.832Z,101730.63
2018-07-07T20:01:43.933Z,101731.01
2018-07-07T20:04:12.031Z,101728.27
2018-07-07T20:06:40.131Z,101724.38
2018-07-07T20:09:08.453Z,101725.41
2018-07-07T20:11:36.549Z,101720.64
2018-07-07T20:14:04.650Z,101724.52
2018-07-07T20:16:40.860Z,101725.86
2018-07-07T20:19:17.592Z,101721.24
2018-07-07T20:21:53.974Z,101723.12
2018-07-07T20:24:23.405Z,101717.47
2018-07-07T20:26:56.940Z,101717.75
2018-07-07T20:29:25.054Z,101723.09
2018-07-07T20:31:54.563Z,101718.03
2018-07-07T20:34:25.707Z,101720.28
2018-07-07T20:36:54.201Z,101728.59
2018-07-07T20:39:22.492Z,101722.95
2018-07-07T20:41:51.164Z,101722.75
2018-07-07T20:44:19.661Z,101723.69
2018-07-07T20:46:48.145Z,101721.98
2018-07-07T20:49:16.260Z,101720.09
2018-07-07T20:51:44.395Z,101720.11
2018-07-07T20:54:12.504Z,101724.55
2018-07-07T20:56:40.639Z,101729.23
2018-07-07T20:59:08.751Z,101734.13
2018-07-07T21:01:36.865Z,101730.47
2018-07-07T21:04:04.995Z,101733.80
2018-07-07T21:06:33.891Z,101729.89
2018-07-07T21:09:02.050Z,101732.53
2018-07-07T21:11:30.201Z,101726.31
2018-07-07T21:13:58.348Z,101718.58
2018-07-07T21:16:26.470Z,101729.58
2018-07-07T21:18:55.103Z,101716.92
2018-07-07T21:21:23.459Z,101722.28
2018-07-07T21:23:51.551Z,101727.73
2018-07-07T21:26:19.733Z,101729.52
2018-07-07T21:28:47.845Z,101735.99
2018-07-07T21:31:15.960Z,101738.97
2018-07-07T21:33:44.102Z,101734.25
2018-07-07T21:36:12.247Z,101738.67
2018-07-07T21:38:40.391Z,101737.91
2018-07-07T21:41:08.513Z,101734.43
2018-07-07T21:43:36.619Z,101741.82
2018-07-07T21:46:04.768Z,101744.20
2018-07-07T21:48:32.901Z,101747.38
2018-07-07T21:51:01.011Z,101740.38
2018-07-07T21:53:29.416Z,101747.25
2018-07-07T21:55:57.498Z,101749.28
2018-07-07T21:58:27.190Z,101754.52
2018-07-07T22:01:10.957Z,101748.48
2018-07-07T22:03:44.836Z,101749.24
2018-07-07T22:06:13.939Z,101747.72
2018-07-07T22:08:42.017Z,101745.37
2018-07-07T22:11:10.120Z,101748.44
2018-07-07T22:13:38.279Z,101741.84
2018-07-07T22:16:06.423Z,101742.27
2018-07-07T22:18:34.566Z,101742.08
2018-07-07T22:21:14.126Z,101750.06
2018-07-07T22:23:42.259Z,101748.01
2018-07-07T22:26:10.396Z,101749.71
2018-07-07T22:28:38.493Z,101746.39
2018-07-07T22:31:06.637Z,101752.56
2018-07-07T22:33:34.770Z,101746.84
2018-07-07T22:36:08.259Z,101745.52
2018-07-07T22:38:41.752Z,101739.65
2018-07-07T22:41:09.832Z,101738.01
2018-07-07T22:43:37.962Z,101734.98
2018-07-07T22:46:06.166Z,101729.97
2018-07-07T22:48:34.256Z,101727.75
2018-07-07T22:51:02.380Z,101735.12
2018-07-07T22:53:30.509Z,101723.44
2018-07-07T22:55:58.658Z,101732.44
2018-07-07T22:58:26.792Z,101725.31
2018-07-07T23:00:54.917Z,101725.60
2018-07-07T23:03:23.040Z,101720.72
2018-07-07T23:05:51.155Z,101724.14
2018-07-07T23:08:19.338Z,101721.90
2018-07-07T23:10:47.392Z,101718.36
2018-07-07T23:13:15.503Z,101721.13
2018-07-07T23:15:43.611Z,101716.38
2018-07-07T23:18:11.690Z,101718.78
2018-07-07T23:20:39.753Z,101718.16
2018-07-07T23:23:07.840Z,101720.52
2018-07-07T23:25:35.980Z,101727.23
2018-07-07T23:28:04.076Z,101723.30
2018-07-07T23:30:32.191Z,101724.39
2018-07-07T23:33:00.301Z,101722.51
2018-07-07T23:35:28.400Z,101716.18
2018-07-07T23:37:56.466Z,101718.85
2018-07-07T23:40:24.555Z,101721.20
2018-07-07T23:42:52.641Z,101716.88
2018-07-07T23:45:20.756Z,101715.64
2018-07-07T23:47:48.833Z,101716.57
2018-07-07T23:50:16.903Z,101713.06
2018-07-07T23:52:45.019Z,101713.95
2018-07-07T23:55:13.137Z,101714.25
2018-07-07T23:57:41.234Z,101716.46
